Time,TemperatureF,DewpointF,PressureIn,WindDirection,WindDirectionDegrees,WindSpeedMPH,WindSpeedGustMPH,Humidity,HourlyPrecipIn,Conditions,Clouds,dailyrainin,SoftwareType,DateUTC
2013-09-29 03:42:00,-999.0,-99.9,29.98,SW,229,0.0,1.0,-999,0.00,,,0.30,,2013-09-29 08:42:00,
2013-09-29 03:52:00,-999.0,-99.9,29.98,SW,229,0.0,1.0,-999,0.00,,,0.30,,2013-09-29 08:52:00,
2013-09-29 04:02:00,-999.0,-99.9,29.98,SW,229,0.0,1.0,-999,0.00,,,0.30,,2013-09-29 09:02:00,
2013-09-29 04:12:00,-999.0,-99.9,29.98,West,259,0.0,2.0,-999,0.00,,,0.30,,2013-09-29 09:12:00,
2013-09-29 04:23:00,-999.0,-99.9,29.98,West,259,0.0,2.0,-999,0.00,,,0.30,,2013-09-29 09:23:00,
2013-09-29 04:33:00,-999.0,-99.9,29.98,WSW,247,0.0,1.0,-999,0.00,,,0.30,,2013-09-29 09:33:00,
2013-09-29 04:43:00,-999.0,-99.9,29.98,WSW,247,0.0,1.0,-999,0.00,,,0.30,,2013-09-29 09:43:00,
2013-09-29 04:54:00,-999.0,-99.9,29.98,WSW,247,0.0,1.0,-999,0.00,,,0.30,,2013-09-29 09:54:00,
2013-09-29 05:03:00,-999.0,-99.9,29.98,WSW,248,0.0,2.0,-999,0.00,,,0.30,,2013-09-29 10:03:00,
2013-09-29 05:12:00,-999.0,-99.9,29.98,WSW,248,0.0,2.0,-999,0.00,,,0.30,,2013-09-29 10:12:00,
2013-09-29 05:23:00,-999.0,-99.9,29.99,WSW,252,1.0,4.0,-999,0.00,,,0.30,,2013-09-29 10:23:00,
2013-09-29 05:32:00,-999.0,-99.9,30.00,WSW,252,0.0,2.0,-999,0.00,,,0.30,,2013-09-29 10:32:00,
2013-09-29 05:43:00,-999.0,-99.9,30.00,West,277,0.0,7.0,-999,0.00,,,0.30,,2013-09-29 10:43:00,
2013-09-29 05:53:00,-999.0,-99.9,30.00,West,277,0.0,7.0,-999,0.00,,,0.30,,2013-09-29 10:53:00,
2013-09-29 06:03:00,-999.0,-99.9,30.00,West,280,1.0,2.0,-999,0.00,,,0.30,,2013-09-29 11:03:00,
2013-09-29 06:12:00,-999.0,-99.9,30.00,West,280,1.0,2.0,-999,0.00,,,0.30,,2013-09-29 11:12:00,
2013-09-29 06:22:00,-999.0,-99.9,30.01,WNW,296,0.0,5.0,-999,0.00,,,0.30,,2013-09-29 11:22:00,
2013-09-29 06:33:00,-999.0,-99.9,30.01,WNW,296,0.0,2.0,-999,0.00,,,0.30,,2013-09-29 11:33:00,
2013-09-29 06:42:00,-999.0,-99.9,30.02,NW,306,0.0,4.0,-999,0.00,,,0.30,,2013-09-29 11:42:00,
2013-09-29 06:52:00,-999.0,-99.9,30.02,NW,306,0.0,4.0,-999,0.00,,,0.30,,2013-09-29 11:52:00,
2013-09-29 07:01:00,-999.0,-99.9,30.02,WNW,295,0.0,2.0,-999,0.00,,,0.30,,2013-09-29 12:01:00,
2013-09-29 07:12:00,-999.0,-99.9,30.02,WNW,295,0.0,2.0,-999,0.00,,,0.30,,2013-09-29 12:12:00,
2013-09-29 07:22:00,-999.0,-99.9,30.02,West,272,0.0,2.0,-999,0.00,,,0.30,,2013-09-29 12:22:00,
2013-09-29 07:32:00,-999.0,-99.9,30.03,West,272,0.0,1.0,-999,0.00,,,0.30,,2013-09-29 12:32:00,
2013-09-29 07:42:00,-999.0,-99.9,30.03,West,272,0.0,0.0,-999,0.00,,,0.30,,2013-09-29 12:42:00,
2013-09-29 07:52:00,-999.0,-99.9,30.03,West,272,0.0,0.0,-999,0.00,,,0.30,,2013-09-29 12:52:00,
2013-09-29 08:02:00,-999.0,-99.9,30.03,West,272,0.0,0.0,-999,0.00,,,0.30,,2013-09-29 13:02:00,
2013-09-29 08:11:00,-999.0,-99.9,30.03,West,272,0.0,0.0,-999,0.00,,,0.30,,2013-09-29 13:11:00,
2013-09-29 08:22:00,-999.0,-99.9,30.04,NW,304,1.0,2.0,-999,0.00,,,0.30,,2013-09-29 13:22:00,
2013-09-29 08:32:00,-999.0,-99.9,30.04,NW,306,0.0,4.0,-999,0.00,,,0.30,,2013-09-29 13:32:00,
2013-09-29 08:42:00,-999.0,-99.9,30.04,NW,305,0.0,4.0,-999,0.00,,,0.30,,2013-09-29 13:42:00,
2013-09-29 08:53:00,-999.0,-99.9,30.04,NW,305,0.0,4.0,-999,0.00,,,0.30,,2013-09-29 13:53:00,
2013-09-29 09:02:00,-999.0,-99.9,30.04,NW,304,1.0,2.0,-999,0.00,,,0.30,,2013-09-29 14:02:00,
2013-09-29 09:12:00,-999.0,-99.9,30.04,NW,304,1.0,2.0,-999,0.00,,,0.30,,2013-09-29 14:12:00,
2013-09-29 09:22:00,-999.0,-99.9,30.04,NW,304,0.0,1.0,-999,0.00,,,0.30,,2013-09-29 14:22:00,
2013-09-29 09:32:00,-999.0,-99.9,30.05,NW,304,0.0,1.0,-999,0.00,,,0.30,,2013-09-29 14:32:00,
2013-09-29 10:55:00,60.0,44.0,30.06,WNW,296,1.0,2.0,55,0.00,,,0.30,,2013-09-29 15:55:00,
2013-09-29 11:13:00,61.0,45.0,30.06,SW,217,2.0,5.0,56,0.00,,,0.30,,2013-09-29 16:13:00,
2013-09-29 11:24:00,61.0,46.0,30.06,WSW,250,3.0,5.0,57,0.00,,,0.30,,2013-09-29 16:24:00,
2013-09-29 11:54:00,63.0,45.0,30.05,West,259,0.0,3.0,51,0.00,,,0.30,,2013-09-29 16:54:00,
2013-09-29 12:12:00,63.0,46.0,30.05,West,275,2.0,5.0,54,0.00,,,0.30,,2013-09-29 17:12:00,
2013-09-29 12:24:00,64.0,47.0,30.05,WSW,242,1.0,4.0,54,0.00,,,0.30,,2013-09-29 17:24:00,
2013-09-29 12:52:00,65.0,46.0,30.04,NE,54,0.0,4.0,50,0.00,,,0.30,,2013-09-29 17:52:00,
2013-09-29 13:13:00,66.0,45.0,30.03,SSW,192,2.0,7.0,47,0.00,,,0.30,,2013-09-29 18:13:00,
2013-09-29 13:22:00,66.0,46.0,30.03,SSW,209,2.0,6.0,49,0.00,,,0.30,,2013-09-29 18:22:00,
2013-09-29 13:52:00,67.0,44.0,30.02,West,263,1.0,6.0,44,0.00,,,0.30,,2013-09-29 18:52:00,
2013-09-29 14:11:00,68.0,44.0,30.02,West,268,1.0,4.0,42,0.00,,,0.30,,2013-09-29 19:11:00,
2013-09-29 14:22:00,68.0,46.0,30.01,WSW,237,1.0,4.0,45,0.00,,,0.30,,2013-09-29 19:22:00,
2013-09-29 14:52:00,69.0,44.0,30.01,SSW,206,0.0,4.0,41,0.00,,,0.30,,2013-09-29 19:52:00,
2013-09-29 15:12:00,70.0,46.0,30.00,SSW,206,0.0,1.0,42,0.00,,,0.30,,2013-09-29 20:12:00,
2013-09-29 15:22:00,69.0,46.0,29.99,SE,131,0.0,5.0,44,0.00,,,0.30,,2013-09-29 20:22:00,
2013-09-29 15:52:00,69.0,46.0,29.98,SSW,212,1.0,4.0,43,0.00,,,0.30,,2013-09-29 20:52:00,
2013-09-29 16:11:00,70.0,46.0,29.98,SSW,201,1.0,5.0,42,0.00,,,0.30,,2013-09-29 21:11:00,
2013-09-29 16:21:00,69.0,45.0,29.98,WSW,237,1.0,6.0,42,0.00,,,0.30,,2013-09-29 21:21:00,
2013-09-29 16:55:00,69.0,46.0,29.97,South,190,4.0,6.0,43,0.00,,,0.30,,2013-09-29 21:55:00,
2013-09-29 17:24:00,70.0,46.0,29.98,South,171,0.0,4.0,42,0.00,,,0.30,,2013-09-29 22:24:00,
2013-09-29 17:53:00,67.0,48.0,29.98,South,190,1.0,5.0,51,0.00,,,0.30,,2013-09-29 22:53:00,
2013-09-29 18:12:00,66.0,48.0,29.98,South,190,0.0,2.0,53,0.00,,,0.30,,2013-09-29 23:12:00,
2013-09-29 18:23:00,65.0,48.0,29.97,South,190,0.0,1.0,54,0.00,,,0.30,,2013-09-29 23:23:00,
2013-09-29 18:53:00,63.0,48.0,29.97,South,190,0.0,0.0,58,0.00,,,0.30,,2013-09-29 23:53:00,
2013-09-29 19:11:00,61.0,47.0,29.97,South,190,0.0,0.0,61,0.00,,,0.29,,2013-09-30 00:11:00,
2013-09-29 19:22:00,60.0,47.0,29.97,South,190,0.0,0.0,63,0.00,,,0.29,,2013-09-30 00:22:00,
2013-09-29 19:42:00,59.0,46.0,29.97,South,190,0.0,0.0,63,0.00,,,0.29,,2013-09-30 00:42:00,
2013-09-29 19:52:00,58.0,45.0,29.98,South,190,0.0,0.0,62,0.00,,,0.29,,2013-09-30 00:52:00,
2013-09-29 20:11:00,57.0,44.0,29.98,South,190,0.0,0.0,61,0.00,,,0.18,,2013-09-30 01:11:00,
2013-09-29 20:22:00,56.0,42.0,29.98,South,190,0.0,0.0,60,0.00,,,0.18,,2013-09-30 01:22:00,
2013-09-29 20:42:00,55.0,41.0,29.98,South,190,0.0,0.0,59,0.00,,,0.18,,2013-09-30 01:42:00,
2013-09-29 20:52:00,55.0,41.0,29.98,South,190,0.0,0.0,58,0.00,,,0.18,,2013-09-30 01:52:00,
2013-09-29 21:12:00,54.0,40.0,29.99,South,190,0.0,1.0,58,0.00,,,0.16,,2013-09-30 02:12:00,
2013-09-29 21:22:00,54.0,39.0,29.99,South,190,0.0,0.0,57,0.00,,,0.16,,2013-09-30 02:22:00,
2013-09-29 21:42:00,54.0,39.0,29.99,South,190,0.0,0.0,57,0.00,,,0.16,,2013-09-30 02:42:00,
2013-09-29 21:52:00,54.0,40.0,29.99,South,190,0.0,0.0,58,0.00,,,0.16,,2013-09-30 02:52:00,
2013-09-29 22:12:00,53.0,38.0,29.99,South,190,0.0,0.0,57,0.00,,,0.09,,2013-09-30 03:12:00,
2013-09-29 22:22:00,53.0,38.0,29.99,South,190,0.0,0.0,57,0.00,,,0.09,,2013-09-30 03:22:00,
2013-09-29 22:55:00,52.0,37.0,29.99,South,190,0.0,0.0,57,0.00,,,0.09,,2013-09-30 03:55:00,